Time;durP1;ratioP1;P1;durP2;ratioP2;P2;SDS_P1;SDS_P2;PMS_P1;PMS_P2;Temp;Humidity;BMP_temperature;BMP_pressure;BME280_temperature;BME280_humidity;BME280_pressure;Samples;Min_cycle;Max_cycle;Signal;HPM_P1;HPM_P2
2022/03/15 00:00:28;;;;;;;8.37;5.80;;;;;;;;;;5038615;28;20732;-71
2022/03/15 00:02:57;;;;;;;6.60;5.83;;;;;;;;;;5035257;28;20234;-72
2022/03/15 00:05:25;;;;;;;9.37;6.13;;;;;;;;;;5038357;28;20219;-74
2022/03/15 00:07:53;;;;;;;8.03;5.50;;;;;;;;;;5025864;28;20199;-72
2022/03/15 00:10:21;;;;;;;7.50;6.17;;;;;;;;;;5038183;28;20207;-72
2022/03/15 00:12:49;;;;;;;7.27;5.60;;;;;;;;;;5038461;28;20231;-72
2022/03/15 00:15:17;;;;;;;8.07;6.43;;;;;;;;;;5037974;28;20667;-72
2022/03/15 00:17:47;;;;;;;7.33;5.97;;;;;;;;;;5037867;28;20255;-72
2022/03/15 00:20:18;;;;;;;7.07;6.33;;;;;;;;;;5037753;28;20200;-72
2022/03/15 00:22:47;;;;;;;7.97;5.73;;;;;;;;;;5038024;28;20667;-72
2022/03/15 00:25:16;;;;;;;7.80;6.23;;;;;;;;;;5036738;28;20299;-72
2022/03/15 00:27:44;;;;;;;6.80;5.90;;;;;;;;;;5038217;28;20267;-71
2022/03/15 00:30:12;;;;;;;7.13;5.67;;;;;;;;;;5038089;28;20290;-72
2022/03/15 00:32:40;;;;;;;6.93;5.70;;;;;;;;;;5037985;28;20234;-71
2022/03/15 00:35:16;;;;;;;9.67;7.97;;;;;;;;;;5037904;28;20239;-72
2022/03/15 00:37:44;;;;;;;10.47;7.40;;;;;;;;;;5037922;28;20266;-73
2022/03/15 00:40:13;;;;;;;8.07;6.40;;;;;;;;;;5038102;28;20203;-72
2022/03/15 00:42:43;;;;;;;6.50;5.43;;;;;;;;;;5037983;28;20239;-71
2022/03/15 00:45:11;;;;;;;8.60;5.43;;;;;;;;;;5037583;28;20743;-73
2022/03/15 00:47:40;;;;;;;8.57;6.40;;;;;;;;;;5037550;28;20645;-71
2022/03/15 00:50:08;;;;;;;7.40;5.43;;;;;;;;;;5037559;28;20641;-70
2022/03/15 00:52:38;;;;;;;9.27;6.50;;;;;;;;;;5037212;28;20649;-72
2022/03/15 00:55:06;;;;;;;7.70;6.00;;;;;;;;;;5037791;28;20302;-72
2022/03/15 00:57:34;;;;;;;7.43;5.97;;;;;;;;;;5037468;28;20263;-72
2022/03/15 01:00:02;;;;;;;12.00;6.27;;;;;;;;;;5037794;28;20203;-71
2022/03/15 01:02:30;;;;;;;9.47;6.43;;;;;;;;;;5037848;28;20235;-73
2022/03/15 01:04:58;;;;;;;9.63;6.73;;;;;;;;;;5037420;28;20678;-72
2022/03/15 01:07:26;;;;;;;8.50;6.73;;;;;;;;;;5037343;28;20295;-72
2022/03/15 01:09:56;;;;;;;8.43;6.40;;;;;;;;;;5037290;28;20272;-70
2022/03/15 01:12:24;;;;;;;8.83;5.90;;;;;;;;;;5037356;28;20242;-72
2022/03/15 01:14:52;;;;;;;8.13;6.10;;;;;;;;;;5037502;28;20239;-71
2022/03/15 01:17:20;;;;;;;7.93;6.57;;;;;;;;;;5026659;28;20239;-72
2022/03/15 01:19:48;;;;;;;7.87;5.77;;;;;;;;;;5032060;28;20290;-72
2022/03/15 01:22:16;;;;;;;8.70;5.63;;;;;;;;;;5037131;28;20230;-71
2022/03/15 01:24:44;;;;;;;6.77;6.00;;;;;;;;;;5035746;28;20235;-72
2022/03/15 01:27:15;;;;;;;7.73;6.43;;;;;;;;;;5035955;28;20314;-72
2022/03/15 01:29:43;;;;;;;9.17;6.63;;;;;;;;;;5035628;28;20231;-72
2022/03/15 01:32:11;;;;;;;9.10;6.47;;;;;;;;;;5035306;28;20243;-72
2022/03/15 01:34:39;;;;;;;9.23;6.13;;;;;;;;;;5035006;28;20669;-71
2022/03/15 01:37:07;;;;;;;9.17;6.77;;;;;;;;;;5037609;28;20865;-72
2022/03/15 01:39:36;;;;;;;10.13;6.80;;;;;;;;;;5039183;28;20259;-72
2022/03/15 01:42:05;;;;;;;9.93;6.77;;;;;;;;;;5040321;28;20357;-72
2022/03/15 01:44:35;;;;;;;8.17;6.37;;;;;;;;;;5038934;28;20208;-72
2022/03/15 01:47:03;;;;;;;10.00;6.40;;;;;;;;;;5040076;28;20330;-72
2022/03/15 01:49:31;;;;;;;7.07;6.37;;;;;;;;;;5039333;28;20287;-72
2022/03/15 01:51:59;;;;;;;8.53;6.47;;;;;;;;;;5039016;28;20226;-71
2022/03/15 01:54:28;;;;;;;7.47;6.50;;;;;;;;;;5038880;28;20246;-72
2022/03/15 01:56:56;;;;;;;9.93;7.50;;;;;;;;;;5039058;28;20263;-72
2022/03/15 01:59:24;;;;;;;8.77;6.40;;;;;;;;;;5039051;28;20254;-72
2022/03/15 02:01:53;;;;;;;7.80;6.53;;;;;;;;;;5039117;28;20208;-72
2022/03/15 02:04:22;;;;;;;10.47;7.10;;;;;;;;;;5040671;28;20690;-72
2022/03/15 02:06:50;;;;;;;8.17;6.17;;;;;;;;;;5040359;28;20314;-71
2022/03/15 02:09:18;;;;;;;9.10;6.70;;;;;;;;;;5040788;28;20231;-72
2022/03/15 02:11:46;;;;;;;8.00;6.87;;;;;;;;;;5040845;28;20278;-72
2022/03/15 02:14:14;;;;;;;10.43;6.63;;;;;;;;;;5040848;28;20287;-72
2022/03/15 02:16:42;;;;;;;9.47;6.57;;;;;;;;;;5040379;28;20219;-71
2022/03/15 02:19:12;;;;;;;8.73;6.07;;;;;;;;;;5040288;28;20231;-71
2022/03/15 02:21:41;;;;;;;7.97;6.50;;;;;;;;;;5040344;28;20270;-71
2022/03/15 02:24:09;;;;;;;7.90;6.80;;;;;;;;;;5027609;28;20239;-71
2022/03/15 02:26:37;;;;;;;8.43;6.33;;;;;;;;;;5040336;28;20319;-71
2022/03/15 02:29:05;;;;;;;9.37;6.50;;;;;;;;;;5040586;28;20290;-71
2022/03/15 02:31:33;;;;;;;9.70;7.27;;;;;;;;;;5040940;28;20318;-71
2022/03/15 02:34:06;;;;;;;9.60;7.43;;;;;;;;;;5040897;28;20208;-71
2022/03/15 02:36:35;;;;;;;13.83;6.90;;;;;;;;;;5040102;28;20240;-71
2022/03/15 02:39:04;;;;;;;10.70;6.97;;;;;;;;;;5040068;28;20313;-71
2022/03/15 02:41:32;;;;;;;10.93;6.07;;;;;;;;;;5040187;28;20246;-71
2022/03/15 02:44:00;;;;;;;11.77;6.17;;;;;;;;;;5040254;28;20243;-71
2022/03/15 02:46:29;;;;;;;10.87;6.27;;;;;;;;;;5039654;28;20270;-71
2022/03/15 02:48:57;;;;;;;7.90;5.97;;;;;;;;;;5039066;28;20215;-71
2022/03/15 02:51:26;;;;;;;9.17;6.17;;;;;;;;;;5039887;28;20235;-71
2022/03/15 02:53:56;;;;;;;8.33;5.97;;;;;;;;;;5039723;28;20713;-71
2022/03/15 02:56:25;;;;;;;8.43;6.30;;;;;;;;;;5039689;28;20259;-72
2022/03/15 02:58:53;;;;;;;10.10;5.57;;;;;;;;;;5039429;28;20718;-71
2022/03/15 03:01:21;;;;;;;8.63;5.57;;;;;;;;;;5026712;28;20235;-71
2022/03/15 03:03:51;;;;;;;10.10;6.43;;;;;;;;;;5039780;28;20215;-71
2022/03/15 03:06:19;;;;;;;8.97;5.80;;;;;;;;;;5039408;28;20291;-71
2022/03/15 03:08:47;;;;;;;7.23;5.70;;;;;;;;;;5039326;28;20662;-71
2022/03/15 03:11:15;;;;;;;7.23;5.80;;;;;;;;;;5039795;28;20231;-71
2022/03/15 03:13:47;;;;;;;6.13;5.00;;;;;;;;;;5039314;28;20706;-71
2022/03/15 03:16:16;;;;;;;7.13;5.20;;;;;;;;;;5039574;28;20302;-71
2022/03/15 03:18:44;;;;;;;9.50;4.90;;;;;;;;;;5039539;28;20230;-72
2022/03/15 03:21:12;;;;;;;6.93;4.60;;;;;;;;;;5039892;28;20298;-72
2022/03/15 03:23:40;;;;;;;6.10;4.87;;;;;;;;;;5039569;28;20294;-72
2022/03/15 03:26:08;;;;;;;5.80;4.40;;;;;;;;;;5039000;28;20669;-72
2022/03/15 03:28:38;;;;;;;7.43;4.53;;;;;;;;;;5038974;28;20246;-72
2022/03/15 03:31:09;;;;;;;9.77;4.63;;;;;;;;;;5038937;28;20257;-71
2022/03/15 03:33:37;;;;;;;6.53;4.10;;;;;;;;;;5037276;28;20253;-71
2022/03/15 03:36:06;;;;;;;6.87;4.03;;;;;;;;;;5037338;28;20227;-71
2022/03/15 03:38:34;;;;;;;7.77;4.30;;;;;;;;;;5037983;28;20239;-71
2022/03/15 03:41:02;;;;;;;5.00;3.80;;;;;;;;;;5038903;28;20687;-71
2022/03/15 03:43:31;;;;;;;5.03;4.10;;;;;;;;;;5037655;28;20238;-71
2022/03/15 03:45:59;;;;;;;5.57;4.03;;;;;;;;;;5032218;28;20267;-70
2022/03/15 03:48:28;;;;;;;5.13;4.27;;;;;;;;;;5034906;28;20262;-70
2022/03/15 03:50:57;;;;;;;5.87;4.33;;;;;;;;;;5032435;28;20295;-71
2022/03/15 03:53:25;;;;;;;6.37;3.97;;;;;;;;;;5038407;28;20734;-71
2022/03/15 03:55:53;;;;;;;4.83;4.00;;;;;;;;;;5038578;28;20656;-71
2022/03/15 03:58:22;;;;;;;11.60;4.13;;;;;;;;;;5038488;28;20654;-71
2022/03/15 04:00:50;;;;;;;7.27;3.57;;;;;;;;;;5038340;28;20262;-71
2022/03/15 04:03:19;;;;;;;5.93;4.13;;;;;;;;;;5038434;28;20203;-71
2022/03/15 04:05:49;;;;;;;7.43;4.90;;;;;;;;;;5038437;28;20238;-69
2022/03/15 04:08:18;;;;;;;7.53;4.37;;;;;;;;;;5038156;28;20207;-69
2022/03/15 04:10:46;;;;;;;6.43;4.43;;;;;;;;;;5038308;28;20291;-68
2022/03/15 04:13:18;;;;;;;4.53;3.43;;;;;;;;;;5038702;28;20231;-69
2022/03/15 04:15:46;;;;;;;5.53;4.17;;;;;;;;;;5038370;28;20269;-68
2022/03/15 04:18:14;;;;;;;6.20;3.23;;;;;;;;;;5038124;28;20744;-70
2022/03/15 04:20:42;;;;;;;7.07;4.03;;;;;;;;;;5037791;28;20329;-70
2022/03/15 04:23:12;;;;;;;5.50;3.67;;;;;;;;;;5037965;28;20746;-69
2022/03/15 04:25:40;;;;;;;6.67;3.43;;;;;;;;;;5037948;28;20590;-69
2022/03/15 04:28:08;;;;;;;5.20;2.87;;;;;;;;;;5038089;28;20307;-68
2022/03/15 04:30:36;;;;;;;7.40;3.17;;;;;;;;;;5037845;28;20647;-69
2022/03/15 04:33:04;;;;;;;2.47;2.27;;;;;;;;;;5037938;28;20246;-70
2022/03/15 04:35:32;;;;;;;5.47;3.17;;;;;;;;;;5037601;28;20223;-70
2022/03/15 04:38:00;;;;;;;3.67;2.43;;;;;;;;;;5037810;28;20625;-68
2022/03/15 04:40:30;;;;;;;3.83;2.73;;;;;;;;;;5037778;28;20238;-70
2022/03/15 04:42:59;;;;;;;4.00;2.80;;;;;;;;;;5038153;28;20231;-70
2022/03/15 04:45:27;;;;;;;4.03;2.50;;;;;;;;;;5037566;28;20263;-70
2022/03/15 04:47:55;;;;;;;3.33;2.80;;;;;;;;;;5037609;28;20638;-69
2022/03/15 04:50:23;;;;;;;3.20;2.90;;;;;;;;;;5037345;28;20291;-69
2022/03/15 04:52:51;;;;;;;3.87;2.60;;;;;;;;;;5037683;28;20215;-70
2022/03/15 04:55:19;;;;;;;2.80;2.60;;;;;;;;;;5037534;28;20730;-69
2022/03/15 04:57:49;;;;;;;4.77;2.50;;;;;;;;;;5037560;28;20298;-68
2022/03/15 05:00:17;;;;;;;2.50;2.27;;;;;;;;;;5037760;28;20318;-70
2022/03/15 05:02:45;;;;;;;3.60;3.13;;;;;;;;;;5037747;28;20315;-69
2022/03/15 05:05:14;;;;;;;4.87;2.47;;;;;;;;;;5037587;28;20650;-71
2022/03/15 05:07:42;;;;;;;3.47;2.60;;;;;;;;;;5038042;28;20246;-69
2022/03/15 05:12:57;;;;;;;2.60;2.37;;;;;;;;;;5037685;28;20290;-71
2022/03/15 05:15:25;;;;;;;3.73;2.23;;;;;;;;;;5037405;28;20667;-71
2022/03/15 05:17:54;;;;;;;2.60;2.23;;;;;;;;;;5037328;28;20254;-71
2022/03/15 05:20:23;;;;;;;3.47;2.80;;;;;;;;;;5027674;28;20262;-71
2022/03/15 05:22:51;;;;;;;5.50;2.50;;;;;;;;;;5037464;28;20238;-69
2022/03/15 05:25:19;;;;;;;4.57;2.80;;;;;;;;;;5037303;28;20660;-71
2022/03/15 05:27:47;;;;;;;3.30;3.00;;;;;;;;;;5034730;28;20238;-70
2022/03/15 05:30:17;;;;;;;3.73;2.30;;;;;;;;;;5036708;28;20263;-71
2022/03/15 05:32:45;;;;;;;5.30;2.73;;;;;;;;;;5036307;28;20271;-70
2022/03/15 05:35:13;;;;;;;3.03;2.67;;;;;;;;;;5036746;28;20276;-68
2022/03/15 05:37:41;;;;;;;3.23;2.77;;;;;;;;;;5037003;28;20643;-67
2022/03/15 05:40:10;;;;;;;4.10;2.50;;;;;;;;;;5037195;28;20756;-67
2022/03/15 05:42:38;;;;;;;3.33;2.30;;;;;;;;;;5037333;28;20242;-67
2022/03/15 05:45:06;;;;;;;7.00;2.80;;;;;;;;;;5037245;28;20271;-69
2022/03/15 05:47:36;;;;;;;4.27;2.77;;;;;;;;;;5037275;28;20291;-69
2022/03/15 05:50:04;;;;;;;2.80;2.60;;;;;;;;;;5036885;28;20282;-68
2022/03/15 05:52:32;;;;;;;3.37;2.37;;;;;;;;;;5036937;28;20237;-69
2022/03/15 05:55:00;;;;;;;4.77;2.40;;;;;;;;;;5037137;28;20238;-69
2022/03/15 05:57:28;;;;;;;5.40;2.93;;;;;;;;;;5035743;28;20633;-69
2022/03/15 05:59:56;;;;;;;5.20;2.73;;;;;;;;;;5035038;28;20771;-69
2022/03/15 06:02:25;;;;;;;5.20;3.20;;;;;;;;;;5035313;28;20296;-67
2022/03/15 06:04:55;;;;;;;3.33;2.60;;;;;;;;;;5035447;28;20211;-66
2022/03/15 06:07:23;;;;;;;4.07;3.27;;;;;;;;;;5035210;28;20239;-66
2022/03/15 06:09:52;;;;;;;2.87;2.67;;;;;;;;;;5034703;28;20290;-68
2022/03/15 06:12:20;;;;;;;4.37;2.43;;;;;;;;;;5036359;28;20207;-66
2022/03/15 06:14:48;;;;;;;4.83;2.67;;;;;;;;;;5036881;28;20310;-67
2022/03/15 06:17:16;;;;;;;3.30;2.30;;;;;;;;;;5036912;28;20310;-67
2022/03/15 06:19:44;;;;;;;3.30;2.07;;;;;;;;;;5036740;28;20246;-75
2022/03/15 06:22:14;;;;;;;2.40;2.20;;;;;;;;;;5034793;28;20224;-66
2022/03/15 06:24:42;;;;;;;3.53;1.63;;;;;;;;;;5039299;28;20206;-66
2022/03/15 06:27:10;;;;;;;2.47;2.00;;;;;;;;;;5037758;28;20251;-66
2022/03/15 06:29:38;;;;;;;3.60;2.10;;;;;;;;;;5038818;28;20278;-64
2022/03/15 06:32:06;;;;;;;3.87;2.40;;;;;;;;;;5039734;28;20204;-65
2022/03/15 06:34:49;;;;;;;3.43;2.10;;;;;;;;;;5039529;28;20199;-66
2022/03/15 06:37:19;;;;;;;1.93;1.70;;;;;;;;;;5039353;28;20350;-66
2022/03/15 06:39:47;;;;;;;2.53;1.80;;;;;;;;;;5039432;28;20200;-66
2022/03/15 06:42:16;;;;;;;4.10;1.87;;;;;;;;;;5039567;28;20279;-66
2022/03/15 06:44:44;;;;;;;3.27;1.87;;;;;;;;;;5040121;28;20204;-64
2022/03/15 06:47:12;;;;;;;4.17;2.23;;;;;;;;;;5040174;28;20787;-66
2022/03/15 06:49:40;;;;;;;2.33;2.13;;;;;;;;;;5040187;28;20195;-65
2022/03/15 06:52:09;;;;;;;3.40;2.07;;;;;;;;;;5040084;28;20278;-66
2022/03/15 06:54:38;;;;;;;2.13;1.93;;;;;;;;;;5038733;28;20282;-67
2022/03/15 06:57:06;;;;;;;3.70;2.30;;;;;;;;;;5037089;28;20306;-67
2022/03/15 06:59:34;;;;;;;3.00;1.90;;;;;;;;;;5039453;28;20290;-67
2022/03/15 07:02:03;;;;;;;1.73;1.53;;;;;;;;;;5039819;28;20274;-67
2022/03/15 07:04:31;;;;;;;4.17;1.83;;;;;;;;;;5039629;28;20216;-67
2022/03/15 07:06:59;;;;;;;2.50;2.20;;;;;;;;;;5038964;28;20258;-67
2022/03/15 07:09:27;;;;;;;3.83;1.97;;;;;;;;;;5039732;28;20272;-67
2022/03/15 07:11:58;;;;;;;1.77;1.67;;;;;;;;;;5039481;28;20226;-67
2022/03/15 07:14:25;;;;;;;3.83;2.27;;;;;;;;;;5039253;28;20235;-67
2022/03/15 07:16:53;;;;;;;1.77;1.67;;;;;;;;;;5039264;28;20258;-67
2022/03/15 07:19:21;;;;;;;4.80;2.30;;;;;;;;;;5039136;28;20283;-67
2022/03/15 07:21:50;;;;;;;3.87;1.90;;;;;;;;;;5036352;28;20223;-66
2022/03/15 07:24:18;;;;;;;4.03;2.13;;;;;;;;;;5038939;28;20286;-66
2022/03/15 07:26:46;;;;;;;2.83;2.23;;;;;;;;;;5038555;28;20223;-65
2022/03/15 07:29:15;;;;;;;5.90;2.47;;;;;;;;;;5038559;28;20235;-66
2022/03/15 07:31:43;;;;;;;2.80;2.10;;;;;;;;;;5038764;28;20223;-66
2022/03/15 07:34:13;;;;;;;7.27;2.73;;;;;;;;;;5038349;28;20200;-66
2022/03/15 07:36:41;;;;;;;3.60;2.00;;;;;;;;;;5037994;28;20223;-65
2022/03/15 07:39:09;;;;;;;4.70;2.20;;;;;;;;;;5035492;28;20286;-66
2022/03/15 07:41:38;;;;;;;2.90;2.13;;;;;;;;;;5037250;28;20258;-64
2022/03/15 07:44:07;;;;;;;3.87;2.30;;;;;;;;;;5038112;28;20210;-64
2022/03/15 07:46:37;;;;;;;4.43;2.00;;;;;;;;;;5037532;28;20274;-66
2022/03/15 07:49:05;;;;;;;4.27;2.77;;;;;;;;;;5037899;28;20238;-66
2022/03/15 07:51:34;;;;;;;3.90;2.00;;;;;;;;;;5037908;28;20272;-66
2022/03/15 07:54:02;;;;;;;4.93;2.33;;;;;;;;;;5037885;28;20294;-65
2022/03/15 07:56:30;;;;;;;2.97;2.67;;;;;;;;;;5038443;28;20310;-66
2022/03/15 07:58:58;;;;;;;4.63;2.50;;;;;;;;;;5038392;28;20239;-66
2022/03/15 08:01:26;;;;;;;3.87;2.20;;;;;;;;;;5038319;28;20291;-66
2022/03/15 08:03:55;;;;;;;3.07;2.13;;;;;;;;;;5038635;28;20214;-64
2022/03/15 08:06:23;;;;;;;3.03;1.87;;;;;;;;;;5038173;28;20721;-65
2022/03/15 08:08:53;;;;;;;5.07;2.00;;;;;;;;;;5038256;28;20387;-65
2022/03/15 08:11:21;;;;;;;5.13;2.03;;;;;;;;;;5038255;28;20235;-64
2022/03/15 08:13:51;;;;;;;2.97;2.20;;;;;;;;;;5038213;28;20238;-66
2022/03/15 08:16:21;;;;;;;2.50;2.17;;;;;;;;;;5038338;28;20785;-66
2022/03/15 08:18:49;;;;;;;3.10;1.73;;;;;;;;;;5038249;28;20210;-64
2022/03/15 08:21:18;;;;;;;5.40;2.13;;;;;;;;;;5037646;28;20243;-67
2022/03/15 08:23:47;;;;;;;3.60;1.73;;;;;;;;;;5037432;28;20222;-67
2022/03/15 08:26:15;;;;;;;4.17;1.73;;;;;;;;;;5037594;28;20297;-68
2022/03/15 08:28:45;;;;;;;2.40;2.20;;;;;;;;;;5037788;28;20641;-66
2022/03/15 08:31:13;;;;;;;7.70;2.77;;;;;;;;;;5037807;28;20200;-69
2022/03/15 08:33:41;;;;;;;4.80;2.07;;;;;;;;;;5038122;28;20211;-68
2022/03/15 08:36:10;;;;;;;3.27;1.77;;;;;;;;;;5032452;28;20250;-69
2022/03/15 08:38:39;;;;;;;1.90;1.70;;;;;;;;;;5037200;28;20283;-69
2022/03/15 08:41:08;;;;;;;2.83;1.43;;;;;;;;;;5037193;28;20204;-68
2022/03/15 08:43:36;;;;;;;2.27;1.50;;;;;;;;;;5036942;28;20732;-68
2022/03/15 08:46:04;;;;;;;2.00;1.80;;;;;;;;;;5036173;28;20238;-68
2022/03/15 08:48:32;;;;;;;3.30;1.53;;;;;;;;;;5037346;28;20282;-68
2022/03/15 08:51:00;;;;;;;23.87;5.97;;;;;;;;;;5034224;28;20655;-67
2022/03/15 08:53:29;;;;;;;6.70;2.60;;;;;;;;;;5036365;28;20656;-70
2022/03/15 08:55:58;;;;;;;4.67;2.27;;;;;;;;;;5036761;28;20258;-69
2022/03/15 08:58:26;;;;;;;7.90;2.50;;;;;;;;;;5036799;28;20235;-69
2022/03/15 09:00:54;;;;;;;3.73;2.33;;;;;;;;;;5036531;28;20610;-78
2022/03/15 09:03:24;;;;;;;3.67;2.00;;;;;;;;;;5036733;28;20578;-69
2022/03/15 09:05:52;;;;;;;1.90;1.80;;;;;;;;;;5034481;28;20231;-70
2022/03/15 09:08:20;;;;;;;2.43;1.40;;;;;;;;;;5037105;28;20207;-70
2022/03/15 09:10:48;;;;;;;5.13;1.93;;;;;;;;;;5036842;28;20237;-70
2022/03/15 09:13:18;;;;;;;5.10;1.97;;;;;;;;;;5036849;28;20199;-69
2022/03/15 09:15:46;;;;;;;2.57;1.53;;;;;;;;;;5034506;28;20257;-69
2022/03/15 09:18:14;;;;;;;4.37;1.70;;;;;;;;;;5036737;28;20314;-68
2022/03/15 09:20:43;;;;;;;1.83;1.63;;;;;;;;;;5033890;28;20286;-69
2022/03/15 09:23:11;;;;;;;2.67;1.43;;;;;;;;;;5036403;28;20651;-69
2022/03/15 09:25:39;;;;;;;2.97;1.67;;;;;;;;;;5036584;28;20298;-69
2022/03/15 09:28:07;;;;;;;2.20;1.80;;;;;;;;;;5037002;28;20703;-68
2022/03/15 09:30:36;;;;;;;4.30;2.00;;;;;;;;;;5034272;28;20199;-69
2022/03/15 09:33:05;;;;;;;1.90;1.80;;;;;;;;;;5033868;28;20203;-69
2022/03/15 09:35:33;;;;;;;4.83;1.90;;;;;;;;;;5035965;28;20246;-68
2022/03/15 09:38:01;;;;;;;4.17;1.90;;;;;;;;;;5036075;28;20241;-69
2022/03/15 09:40:31;;;;;;;2.57;1.50;;;;;;;;;;5045705;28;20199;-69
2022/03/15 09:43:01;;;;;;;2.07;1.40;;;;;;;;;;5055466;28;20231;-69
2022/03/15 09:45:30;;;;;;;1.40;1.30;;;;;;;;;;5054003;28;20227;-69
2022/03/15 09:48:02;;;;;;;3.27;1.77;;;;;;;;;;5054611;28;20203;-69
2022/03/15 09:50:30;;;;;;;1.87;1.60;;;;;;;;;;5051176;28;20238;-69
2022/03/15 09:52:59;;;;;;;2.30;1.20;;;;;;;;;;5053912;28;20203;-69
2022/03/15 09:55:27;;;;;;;1.57;1.43;;;;;;;;;;5051520;28;20219;-69
2022/03/15 09:57:56;;;;;;;5.10;1.90;;;;;;;;;;5057186;28;20253;-69
2022/03/15 10:00:24;;;;;;;1.67;1.57;;;;;;;;;;5052102;28;20740;-69
2022/03/15 10:02:53;;;;;;;1.80;1.70;;;;;;;;;;5053927;28;20223;-69
2022/03/15 10:05:23;;;;;;;2.13;1.60;;;;;;;;;;5037918;28;20274;-69
2022/03/15 10:07:51;;;;;;;3.57;1.90;;;;;;;;;;5035826;28;20575;-69
2022/03/15 10:10:19;;;;;;;2.80;1.60;;;;;;;;;;5038638;28;20231;-69
2022/03/15 10:12:47;;;;;;;1.90;1.53;;;;;;;;;;5052058;28;20226;-68
2022/03/15 10:15:16;;;;;;;2.60;1.50;;;;;;;;;;5039518;28;20660;-69
2022/03/15 10:17:45;;;;;;;1.37;1.30;;;;;;;;;;5040234;28;20249;-69
2022/03/15 10:20:16;;;;;;;2.07;1.27;;;;;;;;;;5038998;28;20199;-69
2022/03/15 10:22:52;;;;;;;2.27;2.10;;;;;;;;;;5039591;28;20250;-69
2022/03/15 10:25:22;;;;;;;2.90;1.53;;;;;;;;;;5043505;28;20226;-69
2022/03/15 10:27:51;;;;;;;2.10;1.40;;;;;;;;;;5043008;28;20263;-69
2022/03/15 10:30:19;;;;;;;1.93;1.63;;;;;;;;;;5041376;28;20629;-69
2022/03/15 10:32:47;;;;;;;2.10;1.73;;;;;;;;;;5039589;28;20278;-69
2022/03/15 10:35:18;;;;;;;1.87;1.70;;;;;;;;;;5038998;28;20310;-69
2022/03/15 10:37:46;;;;;;;2.47;1.80;;;;;;;;;;5039246;28;20630;-69
2022/03/15 10:40:16;;;;;;;1.90;1.40;;;;;;;;;;5039650;28;20295;-69
2022/03/15 10:42:46;;;;;;;1.53;1.43;;;;;;;;;;5039787;28;20259;-68
2022/03/15 10:45:15;;;;;;;2.00;1.50;;;;;;;;;;5039901;28;20272;-68
2022/03/15 10:47:48;;;;;;;1.90;1.53;;;;;;;;;;5039870;28;20214;-69
2022/03/15 10:50:16;;;;;;;3.57;1.60;;;;;;;;;;5039557;28;20246;-69
2022/03/15 10:52:46;;;;;;;2.60;2.07;;;;;;;;;;5039769;28;20208;-69
2022/03/15 10:55:15;;;;;;;1.63;1.53;;;;;;;;;;5039699;28;20247;-69
2022/03/15 10:57:52;;;;;;;3.60;1.60;;;;;;;;;;5039637;28;20234;-69
2022/03/15 11:00:22;;;;;;;3.70;1.50;;;;;;;;;;5039071;28;20667;-69
2022/03/15 11:02:51;;;;;;;1.60;1.50;;;;;;;;;;5038560;28;20306;-67
2022/03/15 11:05:27;;;;;;;1.20;1.20;;;;;;;;;;5036510;28;20223;-70
2022/03/15 11:07:55;;;;;;;1.47;1.37;;;;;;;;;;5038725;28;20260;-68
2022/03/15 11:10:24;;;;;;;2.37;1.43;;;;;;;;;;5038801;28;20211;-69
2022/03/15 11:12:58;;;;;;;3.13;1.60;;;;;;;;;;5039114;28;20734;-69
2022/03/15 11:15:31;;;;;;;2.27;1.73;;;;;;;;;;5039292;28;20291;-67
2022/03/15 11:17:59;;;;;;;7.53;1.83;;;;;;;;;;5039323;28;20286;-70
2022/03/15 11:20:31;;;;;;;1.63;1.50;;;;;;;;;;5038784;28;20239;-69
2022/03/15 11:23:00;;;;;;;5.20;1.57;;;;;;;;;;5038464;28;20242;-69
2022/03/15 11:25:33;;;;;;;3.20;1.67;;;;;;;;;;5038169;28;20246;-69
2022/03/15 11:28:03;;;;;;;1.60;1.50;;;;;;;;;;5039099;28;20243;-69
2022/03/15 11:30:31;;;;;;;4.10;1.80;;;;;;;;;;5038934;28;20199;-69
2022/03/15 11:33:01;;;;;;;4.40;1.73;;;;;;;;;;5039336;28;20211;-70
2022/03/15 11:35:31;;;;;;;2.53;1.60;;;;;;;;;;5039343;28;20270;-70
2022/03/15 11:37:59;;;;;;;3.30;1.70;;;;;;;;;;5039194;28;20207;-69
2022/03/15 11:40:28;;;;;;;1.80;1.63;;;;;;;;;;5038753;28;20219;-70
2022/03/15 11:43:03;;;;;;;3.17;1.50;;;;;;;;;;5042257;28;20747;-69
2022/03/15 11:45:33;;;;;;;4.30;1.50;;;;;;;;;;5043372;28;20293;-69
2022/03/15 11:48:06;;;;;;;4.23;1.63;;;;;;;;;;5038626;28;20595;-67
2022/03/15 11:50:38;;;;;;;3.17;1.67;;;;;;;;;;5036420;28;20714;-69
2022/03/15 11:53:09;;;;;;;5.43;1.90;;;;;;;;;;5038689;28;20199;-68
2022/03/15 11:55:42;;;;;;;2.97;1.73;;;;;;;;;;5038692;28;20778;-66
2022/03/15 11:58:11;;;;;;;4.70;1.40;;;;;;;;;;5036851;28;20269;-70
2022/03/15 12:00:42;;;;;;;1.60;1.13;;;;;;;;;;5038256;28;20658;-68
2022/03/15 12:03:11;;;;;;;3.20;1.73;;;;;;;;;;5037744;28;20614;-66
2022/03/15 12:05:44;;;;;;;2.23;1.80;;;;;;;;;;5048359;28;20694;-68
2022/03/15 12:08:13;;;;;;;1.13;1.10;;;;;;;;;;5039197;28;20294;-69
2022/03/15 12:10:46;;;;;;;2.30;1.70;;;;;;;;;;5038113;28;20235;-68
2022/03/15 12:13:36;;;;;;;3.20;1.83;;;;;;;;;;5035688;28;20226;-66
2022/03/15 12:16:13;;;;;;;1.63;1.30;;;;;;;;;;5037901;28;20246;-66
2022/03/15 12:18:44;;;;;;;3.03;1.50;;;;;;;;;;5035219;28;20195;-68
2022/03/15 12:21:12;;;;;;;1.30;1.27;;;;;;;;;;5038458;28;20203;-68
2022/03/15 12:23:40;;;;;;;3.33;1.70;;;;;;;;;;5034384;28;20310;-68
2022/03/15 12:26:16;;;;;;;4.50;1.83;;;;;;;;;;5036791;28;20306;-69
2022/03/15 12:28:54;;;;;;;2.23;1.17;;;;;;;;;;5035499;28;20265;-69
2022/03/15 12:31:32;;;;;;;1.40;1.30;;;;;;;;;;5037739;28;20242;-69
2022/03/15 12:34:03;;;;;;;8.50;4.67;;;;;;;;;;5037722;28;20203;-69
2022/03/15 12:36:38;;;;;;;2.10;1.70;;;;;;;;;;5037097;28;20259;-68
2022/03/15 12:39:11;;;;;;;6.50;1.87;;;;;;;;;;5037120;28;20236;-69
2022/03/15 12:41:43;;;;;;;3.17;1.27;;;;;;;;;;5037418;28;20214;-68
2022/03/15 12:44:11;;;;;;;4.03;1.80;;;;;;;;;;5022633;28;20315;-68
2022/03/15 12:46:41;;;;;;;2.83;1.53;;;;;;;;;;5030079;28;20321;-69
2022/03/15 12:49:10;;;;;;;4.33;1.20;;;;;;;;;;5037422;28;20231;-67
2022/03/15 12:51:41;;;;;;;2.03;1.67;;;;;;;;;;5037337;28;20242;-67
2022/03/15 12:54:11;;;;;;;3.40;1.57;;;;;;;;;;5037457;28;20248;-68
2022/03/15 12:56:47;;;;;;;1.73;1.47;;;;;;;;;;5037736;28;20266;-68
2022/03/15 12:59:23;;;;;;;4.07;1.30;;;;;;;;;;5037734;28;20239;-68
2022/03/15 13:01:53;;;;;;;2.93;1.20;;;;;;;;;;5037610;28;20203;-68
2022/03/15 13:04:30;;;;;;;2.57;1.50;;;;;;;;;;5037531;28;20234;-68
2022/03/15 13:07:02;;;;;;;5.47;1.60;;;;;;;;;;5037554;28;20235;-69
2022/03/15 13:09:30;;;;;;;2.80;1.33;;;;;;;;;;5037790;28;20234;-67
2022/03/15 13:11:58;;;;;;;2.03;1.33;;;;;;;;;;5037584;28;20692;-67
2022/03/15 13:14:28;;;;;;;1.40;1.30;;;;;;;;;;5037296;28;20682;-68
2022/03/15 13:17:00;;;;;;;2.77;1.30;;;;;;;;;;5037348;28;20226;-67
2022/03/15 13:19:30;;;;;;;1.97;1.67;;;;;;;;;;5036764;28;20202;-68
2022/03/15 13:21:58;;;;;;;3.60;1.70;;;;;;;;;;5036982;28;20267;-68
2022/03/15 13:24:30;;;;;;;2.33;1.40;;;;;;;;;;5036481;28;20249;-67
2022/03/15 13:26:59;;;;;;;3.23;1.67;;;;;;;;;;5033782;28;20281;-67
2022/03/15 13:29:29;;;;;;;8.20;1.83;;;;;;;;;;5036872;28;20199;-68
2022/03/15 13:32:00;;;;;;;1.47;1.37;;;;;;;;;;5042404;28;20282;-67
2022/03/15 13:34:28;;;;;;;2.20;2.00;;;;;;;;;;5037552;28;20236;-69
2022/03/15 13:37:01;;;;;;;2.77;1.90;;;;;;;;;;5038727;28;20230;-68
2022/03/15 13:39:29;;;;;;;3.73;1.30;;;;;;;;;;5040255;28;20674;-68
2022/03/15 13:41:58;;;;;;;4.80;1.97;;;;;;;;;;5039479;28;20223;-79
2022/03/15 13:44:27;;;;;;;4.20;1.60;;;;;;;;;;5040237;28;20310;-68
2022/03/15 13:47:04;;;;;;;5.23;1.93;;;;;;;;;;5038755;28;20591;-69
2022/03/15 13:49:39;;;;;;;3.37;1.70;;;;;;;;;;5038903;28;20204;-68
2022/03/15 13:52:07;;;;;;;2.07;1.87;;;;;;;;;;5039333;28;20239;-69
2022/03/15 13:54:48;;;;;;;2.23;1.37;;;;;;;;;;5038978;28;20204;-69
2022/03/15 13:57:25;;;;;;;5.30;1.87;;;;;;;;;;5038152;28;20262;-69
2022/03/15 13:59:58;;;;;;;4.03;2.10;;;;;;;;;;5037601;28;20199;-68
2022/03/15 14:02:39;;;;;;;1.50;1.40;;;;;;;;;;5040379;28;20231;-68
2022/03/15 14:05:10;;;;;;;2.17;1.77;;;;;;;;;;5049652;28;20289;-67
2022/03/15 14:07:39;;;;;;;6.13;1.90;;;;;;;;;;5035882;28;20228;-68
2022/03/15 14:10:09;;;;;;;2.13;1.43;;;;;;;;;;5037228;28;20222;-67
2022/03/15 14:12:37;;;;;;;4.10;1.70;;;;;;;;;;5036077;28;20285;-69
2022/03/15 14:15:06;;;;;;;2.60;1.70;;;;;;;;;;5039726;28;20234;-67
2022/03/15 14:17:48;;;;;;;3.57;1.50;;;;;;;;;;5039748;28;20295;-68
2022/03/15 14:20:18;;;;;;;8.20;1.93;;;;;;;;;;5038572;28;20213;-67
2022/03/15 14:22:48;;;;;;;1.93;1.40;;;;;;;;;;5040283;28;20294;-68
2022/03/15 14:25:21;;;;;;;5.00;1.60;;;;;;;;;;5040004;28;20656;-69
2022/03/15 14:27:50;;;;;;;8.73;1.83;;;;;;;;;;5037940;28;20694;-69
2022/03/15 14:30:22;;;;;;;2.90;1.70;;;;;;;;;;5040008;28;20287;-69
2022/03/15 14:32:52;;;;;;;5.33;1.50;;;;;;;;;;5039829;28;20204;-69
2022/03/15 14:35:25;;;;;;;4.40;1.60;;;;;;;;;;5039449;28;20302;-69
2022/03/15 14:38:05;;;;;;;5.23;1.47;;;;;;;;;;5039413;28;20231;-67
2022/03/15 14:40:38;;;;;;;3.40;1.50;;;;;;;;;;5038754;28;20196;-68
2022/03/15 14:43:06;;;;;;;5.77;1.70;;;;;;;;;;5039690;28;20675;-69
2022/03/15 14:45:35;;;;;;;5.00;1.67;;;;;;;;;;5038285;28;20662;-68
2022/03/15 14:48:08;;;;;;;3.33;1.90;;;;;;;;;;5039474;28;20200;-69
2022/03/15 14:50:36;;;;;;;3.43;1.47;;;;;;;;;;5041960;28;20227;-68
2022/03/15 14:53:04;;;;;;;5.37;1.70;;;;;;;;;;5039220;28;20257;-68
2022/03/15 14:55:32;;;;;;;1.93;1.60;;;;;;;;;;5039142;28;20736;-69
2022/03/15 14:58:01;;;;;;;3.07;1.43;;;;;;;;;;5036754;28;20265;-68